Time;durP1;ratioP1;P1;durP2;ratioP2;P2;SDS_P1;SDS_P2;PMS_P1;PMS_P2;Temp;Humidity;BMP_temperature;BMP_pressure;BME280_temperature;BME280_humidity;BME280_pressure;Samples;Min_cycle;Max_cycle;Signal;HPM_P1;HPM_P2
2021/06/06 00:01:53;;;;;;;35.10;21.67;;;;;;;13.72;72.85;99626.28;5013295;28;20139;-72
2021/06/06 00:04:22;;;;;;;43.03;24.95;;;;;;;13.72;72.80;99620.97;5032140;28;20482;-71
2021/06/06 00:06:48;;;;;;;47.60;26.90;;;;;;;13.72;72.81;99628.09;5032127;28;20041;-70
2021/06/06 00:09:16;;;;;;;47.45;28.70;;;;;;;13.74;72.93;99623.47;5032283;28;20041;-70
2021/06/06 00:11:50;;;;;;;50.17;28.52;;;;;;;13.74;72.55;99623.47;5031842;28;20124;-72
2021/06/06 00:14:27;;;;;;;54.88;30.98;;;;;;;13.72;72.88;99628.94;5032046;28;20038;-70
2021/06/06 00:16:56;;;;;;;61.03;31.83;;;;;;;13.70;72.98;99628.22;5032130;28;20068;-72
2021/06/06 00:19:23;;;;;;;62.15;33.45;;;;;;;13.69;73.15;99626.53;5029017;28;20098;-73
2021/06/06 00:21:50;;;;;;;62.47;34.67;;;;;;;13.71;72.92;99629.09;5012075;28;20248;-70
2021/06/06 00:24:21;;;;;;;63.33;32.88;;;;;;;13.67;73.10;99628.53;5009417;28;20089;-71
2021/06/06 00:26:47;;;;;;;58.63;31.95;;;;;;;13.65;73.29;99627.81;4991125;28;20042;-74
2021/06/06 00:29:13;;;;;;;53.45;29.98;;;;;;;13.61;73.25;99623.78;4992152;28;20071;-75
2021/06/06 00:31:40;;;;;;;54.63;31.10;;;;;;;13.56;73.89;99628.66;4992115;28;20121;-74
2021/06/06 00:34:05;;;;;;;61.45;32.60;;;;;;;13.55;73.92;99619.00;4992262;28;20094;-71
2021/06/06 00:36:32;;;;;;;57.28;33.15;;;;;;;13.55;74.05;99622.50;4992080;28;20456;-70
2021/06/06 00:38:58;;;;;;;60.95;32.28;;;;;;;13.57;74.04;99617.03;4991172;28;20038;-71
2021/06/06 00:41:27;;;;;;;59.08;31.75;;;;;;;13.58;73.56;99614.25;4992046;28;20428;-69
2021/06/06 00:43:58;;;;;;;61.75;33.88;;;;;;;13.59;73.88;99612.44;4975188;28;20491;-74
2021/06/06 00:46:26;;;;;;;63.33;32.67;;;;;;;13.59;73.69;99615.94;4991116;28;20038;-69
2021/06/06 00:48:54;;;;;;;65.88;33.13;;;;;;;13.58;73.76;99613.41;4990835;28;20053;-69
2021/06/06 00:51:23;;;;;;;64.43;34.13;;;;;;;13.57;73.66;99609.91;4992056;28;20046;-74
2021/06/06 00:54:02;;;;;;;60.55;32.13;;;;;;;13.55;73.69;99619.84;4990394;28;20049;-70
2021/06/06 00:56:28;;;;;;;58.70;32.22;;;;;;;13.53;73.64;99612.97;4990582;28;20038;-69
2021/06/06 00:58:59;;;;;;;62.38;31.65;;;;;;;13.53;73.60;99615.63;4991760;28;20038;-70
2021/06/06 01:01:28;;;;;;;55.92;30.33;;;;;;;13.49;73.77;99607.09;4990797;28;20077;-70
2021/06/06 01:03:56;;;;;;;62.35;29.83;;;;;;;13.46;74.46;99606.53;5026261;28;20120;-69
2021/06/06 01:06:45;;;;;;;57.28;28.98;;;;;;;13.45;74.10;99613.69;5046733;28;20120;-72
2021/06/06 01:09:15;;;;;;;49.72;26.67;;;;;;;13.46;74.13;99612.72;5046323;28;20034;-69
2021/06/06 01:11:46;;;;;;;48.25;26.13;;;;;;;13.49;73.89;99609.75;5012521;28;20474;-75
2021/06/06 01:14:23;;;;;;;53.17;27.80;;;;;;;13.50;74.32;99602.66;5029764;28;20038;-70
2021/06/06 01:17:13;;;;;;;46.83;25.27;;;;;;;13.51;74.02;99614.97;5013221;28;20034;-71
2021/06/06 01:20:13;;;;;;;54.72;25.70;;;;;;;13.53;74.01;99615.63;5013710;28;20040;-71
2021/06/06 01:23:18;;;;;;;49.28;26.10;;;;;;;13.57;73.86;99614.38;5014993;28;20068;-70
2021/06/06 01:25:46;;;;;;;48.08;25.83;;;;;;;13.61;73.59;99606.97;5029903;28;20148;-69
2021/06/06 01:28:20;;;;;;;49.25;25.70;;;;;;;13.62;73.55;99614.81;5013372;28;20505;-71
2021/06/06 01:30:53;;;;;;;49.10;25.92;;;;;;;13.63;73.64;99616.47;5029567;28;20041;-73
2021/06/06 01:33:26;;;;;;;48.67;25.15;;;;;;;13.63;73.47;99613.81;5046504;28;20044;-72
2021/06/06 01:35:57;;;;;;;45.85;25.15;;;;;;;13.64;73.77;99612.84;5030367;28;20033;-71
2021/06/06 01:38:36;;;;;;;50.63;25.70;;;;;;;13.63;73.70;99608.50;5013807;28;20049;-71
2021/06/06 01:41:14;;;;;;;48.83;24.92;;;;;;;13.64;73.55;99614.69;5030306;28;20194;-73
2021/06/06 01:43:49;;;;;;;46.28;24.35;;;;;;;13.64;74.07;99607.53;5013599;28;20040;-69
2021/06/06 01:46:21;;;;;;;49.58;23.83;;;;;;;13.65;74.03;99600.41;5029702;28;20065;-75
2021/06/06 01:48:48;;;;;;;49.08;23.13;;;;;;;13.67;73.33;99601.09;5029589;28;20382;-70
2021/06/06 01:51:23;;;;;;;643.77;316.53;;;;;;;13.70;73.63;99603.47;5031019;28;20470;-74
2021/06/06 01:53:49;;;;;;;42.78;21.55;;;;;;;13.74;73.58;99597.75;5013587;28;20489;-73
2021/06/06 01:56:21;;;;;;;43.15;20.08;;;;;;;13.78;73.42;99592.16;5029627;28;20041;-71
2021/06/06 01:58:54;;;;;;;36.92;19.33;;;;;;;13.82;73.21;99598.84;5029637;28;20044;-75
2021/06/06 02:01:24;;;;;;;35.63;19.17;;;;;;;13.86;73.13;99592.28;5010063;28;20069;-75
2021/06/06 02:03:55;;;;;;;37.67;19.13;;;;;;;13.88;73.09;99593.81;5027667;28;20044;-69
2021/06/06 02:06:54;;;;;;;34.60;18.05;;;;;;;13.93;72.87;99590.72;5013978;28;20475;-70
2021/06/06 02:09:29;;;;;;;36.38;19.02;;;;;;;13.98;72.87;99588.50;5029395;28;20036;-76
2021/06/06 02:12:24;;;;;;;41.50;17.58;;;;;;;14.01;72.75;99592.69;5031245;28;20056;-69
2021/06/06 02:14:58;;;;;;;35.53;18.10;;;;;;;14.06;72.64;99588.59;5029423;28;20029;-71
2021/06/06 02:17:30;;;;;;;32.90;17.17;;;;;;;14.09;72.44;99579.50;5030197;28;20076;-74
2021/06/06 02:20:16;;;;;;;39.10;19.75;;;;;;;14.12;72.49;99575.72;5046091;28;20117;-70
2021/06/06 02:22:46;;;;;;;36.65;17.83;;;;;;;14.13;72.20;99586.22;5030640;28;20509;-71
2021/06/06 02:25:15;;;;;;;30.58;18.10;;;;;;;14.17;72.22;99581.47;5049637;28;20076;-71
2021/06/06 02:27:52;;;;;;;31.23;17.25;;;;;;;14.19;72.06;99590.13;5048724;28;20041;-69
2021/06/06 02:30:18;;;;;;;81.20;40.63;;;;;;;14.22;71.93;99592.50;5032751;28;20033;-69
2021/06/06 02:33:24;;;;;;;32.80;16.52;;;;;;;14.22;72.21;99589.84;5033740;28;20086;-71
2021/06/06 02:35:58;;;;;;;;;;;;;;;14.26;72.11;99596.53;5017159;28;20034;-74
2021/06/06 02:38:38;;;;;;;34.33;17.13;;;;;;;14.26;71.77;99590.41;5032768;28;19927;-72
2021/06/06 02:41:26;;;;;;;31.30;17.00;;;;;;;14.28;71.92;99599.91;5016350;28;20036;-70
2021/06/06 02:43:59;;;;;;;34.67;18.17;;;;;;;14.31;71.85;99593.47;5012586;28;20061;-70
2021/06/06 02:46:28;;;;;;;34.60;17.95;;;;;;;14.34;72.08;99594.00;5012611;28;20042;-73
2021/06/06 02:49:02;;;;;;;32.92;17.35;;;;;;;14.37;71.72;99593.72;5012708;28;20052;-73
2021/06/06 02:51:34;;;;;;;31.05;15.77;;;;;;;14.38;71.78;99584.75;4996952;28;20133;-75
2021/06/06 02:54:05;;;;;;;33.28;16.48;;;;;;;14.45;71.86;99589.47;4996515;28;20117;-72
2021/06/06 02:56:42;;;;;;;32.60;16.13;;;;;;;14.50;71.37;99592.53;4996587;28;20058;-71
2021/06/06 02:59:25;;;;;;;30.77;15.57;;;;;;;14.53;71.45;99581.63;5012520;28;20034;-71
2021/06/06 03:01:57;;;;;;;32.10;16.20;;;;;;;14.56;71.28;99586.63;4997745;28;20030;-69
2021/06/06 03:04:32;;;;;;;32.67;15.05;;;;;;;14.60;71.19;99580.03;5032411;28;20089;-69
2021/06/06 03:07:07;;;;;;;25.35;13.85;;;;;;;14.65;71.03;99579.63;5032339;28;20076;-70
2021/06/06 03:09:34;;;;;;;26.27;13.75;;;;;;;14.72;70.77;99594.03;5048480;28;20025;-68
2021/06/06 03:12:05;;;;;;;24.30;13.60;;;;;;;14.79;70.63;99591.59;5033553;28;20470;-71
2021/06/06 03:14:39;;;;;;;20.80;12.93;;;;;;;14.87;70.47;99586.38;5033075;28;20048;-71
2021/06/06 03:17:17;;;;;;;23.20;13.32;;;;;;;14.91;70.39;99585.09;5032641;28;20040;-73
2021/06/06 03:19:46;;;;;;;27.98;12.70;;;;;;;14.96;70.12;99576.66;5015660;28;20102;-70
2021/06/06 03:22:20;;;;;;;23.80;12.15;;;;;;;15.03;70.05;99588.41;5031689;28;20041;-72
2021/06/06 03:24:53;;;;;;;19.95;12.32;;;;;;;15.11;69.72;99585.00;5015877;28;20056;-72
2021/06/06 03:27:23;;;;;;;23.60;12.65;;;;;;;15.20;69.36;99584.06;5033038;28;20099;-68
2021/06/06 03:29:58;;;;;;;27.20;11.30;;;;;;;15.27;69.08;99577.16;5031664;28;20382;-73
2021/06/06 03:32:32;;;;;;;27.73;13.00;;;;;;;15.34;68.67;99575.56;5031597;28;20163;-69
2021/06/06 03:35:02;;;;;;;20.90;11.25;;;;;;;15.46;68.36;99575.34;5027690;28;20494;-74
2021/06/06 03:37:29;;;;;;;;;;;;;;;15.55;68.13;99573.59;4992765;28;20042;-71
2021/06/06 03:40:19;;;;;;;23.08;11.00;;;;;;;15.73;67.80;99578.91;5002470;28;19956;-70
2021/06/06 03:42:58;;;;;;;25.48;13.15;;;;;;;15.89;67.41;99581.75;5011283;28;20045;-71
2021/06/06 03:45:25;;;;;;;24.55;12.43;;;;;;;16.04;66.75;99581.16;5011568;28;20658;-68
2021/06/06 03:47:55;;;;;;;22.30;11.67;;;;;;;16.22;66.17;99579.28;5012836;28;20033;-70
2021/06/06 03:50:23;;;;;;;20.20;11.30;;;;;;;16.43;65.64;99572.75;5011756;28;20789;-73
2021/06/06 03:52:49;;;;;;;24.08;12.90;;;;;;;16.63;65.03;99576.00;5012661;28;20042;-71
2021/06/06 03:55:17;;;;;;;22.88;11.93;;;;;;;17.21;63.40;99569.03;5011382;28;20841;-69
2021/06/06 03:57:48;;;;;;;20.17;10.93;;;;;;;18.85;58.69;99566.31;5011109;28;20524;-70
2021/06/06 04:00:25;;;;;;;23.45;12.43;;;;;;;18.91;58.25;99577.19;5011335;28;20415;-70
2021/06/06 04:02:57;;;;;;;20.05;11.15;;;;;;;18.40;59.09;99563.31;5021236;28;20052;-72
2021/06/06 04:05:27;;;;;;;22.80;13.07;;;;;;;18.16;59.55;99562.38;5047749;28;20095;-73
2021/06/06 04:07:54;;;;;;;22.95;10.20;;;;;;;18.51;59.05;99570.16;5048255;28;20479;-71
2021/06/06 04:10:21;;;;;;;15.73;10.27;;;;;;;20.19;54.92;99556.13;5033018;28;20033;-73
2021/06/06 04:12:48;;;;;;;17.45;10.05;;;;;;;22.11;50.17;99556.81;5032124;28;20112;-73
2021/06/06 04:15:15;;;;;;;16.40;9.25;;;;;;;21.94;49.57;99555.44;5032911;28;20092;-70
2021/06/06 04:17:41;;;;;;;14.93;9.43;;;;;;;21.83;49.79;99553.28;5031996;28;20060;-71
2021/06/06 04:20:08;;;;;;;14.27;8.63;;;;;;;22.22;48.15;99558.13;5032006;28;20099;-70
2021/06/06 04:22:35;;;;;;;19.95;10.10;;;;;;;22.21;48.21;99567.22;5031438;28;20036;-70
2021/06/06 04:25:04;;;;;;;16.65;9.30;;;;;;;22.54;47.63;99557.72;5046777;28;20536;-69
2021/06/06 04:27:31;;;;;;;15.98;9.65;;;;;;;23.75;45.18;99546.22;5031600;28;20136;-71
2021/06/06 04:29:59;;;;;;;16.30;8.05;;;;;;;24.04;43.97;99546.84;5031801;28;20042;-72
2021/06/06 04:32:27;;;;;;;12.43;8.30;;;;;;;23.72;44.10;99543.91;5031665;28;20037;-74
2021/06/06 04:34:53;;;;;;;14.52;9.02;;;;;;;24.01;43.45;99554.53;5029992;28;20037;-70
2021/06/06 04:37:21;;;;;;;14.15;9.20;;;;;;;24.70;42.57;99547.72;5030498;28;20052;-69
2021/06/06 04:39:48;;;;;;;12.93;8.55;;;;;;;25.08;41.65;99553.38;5030213;28;20491;-70
2021/06/06 04:42:21;;;;;;;10.90;8.05;;;;;;;23.55;44.28;99551.63;5031574;28;20057;-74
2021/06/06 04:44:49;;;;;;;12.95;7.78;;;;;;;22.78;45.88;99549.09;5046930;28;20510;-70
2021/06/06 04:47:17;;;;;;;12.70;8.15;;;;;;;22.30;47.16;99549.03;5031482;28;20037;-73
2021/06/06 04:49:49;;;;;;;14.05;7.25;;;;;;;22.30;46.96;99540.97;5030033;28;20151;-74
2021/06/06 04:52:17;;;;;;;14.05;7.25;;;;;;;22.05;48.12;99551.38;5046950;28;20497;-72
2021/06/06 04:54:47;;;;;;;11.30;7.00;;;;;;;22.56;47.43;99543.00;5030090;28;20132;-72
2021/06/06 04:57:13;;;;;;;10.43;6.38;;;;;;;22.40;46.84;99538.75;5031259;28;20124;-71
2021/06/06 04:59:39;;;;;;;9.85;6.32;;;;;;;22.18;46.82;99550.63;4991710;28;20121;-72
2021/06/06 05:02:10;;;;;;;10.70;6.68;;;;;;;21.78;48.18;99552.00;5002648;28;20030;-72
2021/06/06 05:04:40;;;;;;;9.20;6.15;;;;;;;21.10;49.45;99559.63;5007092;28;20034;-71
2021/06/06 05:07:07;;;;;;;9.32;6.50;;;;;;;20.78;49.77;99550.97;4997832;28;20042;-70
2021/06/06 05:09:34;;;;;;;10.57;6.80;;;;;;;20.48;51.01;99550.97;5006777;28;20088;-70
2021/06/06 05:12:07;;;;;;;11.25;6.78;;;;;;;20.64;50.99;99539.19;5009836;28;20130;-72
2021/06/06 05:14:34;;;;;;;;;;;;;;;20.65;51.19;99540.84;5009280;28;20042;-71
2021/06/06 05:17:03;;;;;;;10.10;6.78;;;;;;;20.77;51.34;99543.91;4995193;28;19941;-74
2021/06/06 05:19:37;;;;;;;11.52;7.18;;;;;;;20.82;51.19;99555.78;5011013;28;20030;-73
2021/06/06 05:22:05;;;;;;;13.95;7.28;;;;;;;20.73;51.28;99538.06;5009523;28;20045;-77
2021/06/06 05:24:34;;;;;;;11.48;6.40;;;;;;;20.64;51.46;99537.31;4999759;28;20035;-73
2021/06/06 05:27:00;;;;;;;11.05;6.85;;;;;;;20.52;52.12;99536.97;5005891;28;20064;-78
2021/06/06 05:29:25;;;;;;;10.43;6.70;;;;;;;20.61;52.00;99535.03;4996354;28;20476;-77
2021/06/06 05:31:53;;;;;;;19.03;8.27;;;;;;;20.78;51.68;99538.34;4997991;28;20380;-73
2021/06/06 05:34:19;;;;;;;12.50;7.15;;;;;;;20.82;51.54;99541.50;5005073;28;20216;-73
2021/06/06 05:36:45;;;;;;;13.90;7.88;;;;;;;20.76;51.82;99537.72;5001244;28;20038;-72
2021/06/06 05:39:11;;;;;;;13.80;6.75;;;;;;;20.94;51.17;99544.53;5011048;28;20034;-81
2021/06/06 05:41:38;;;;;;;13.38;6.65;;;;;;;21.03;50.96;99551.44;4987964;28;20053;-75
2021/06/06 05:44:05;;;;;;;11.30;6.20;;;;;;;21.12;51.05;99542.25;5000896;28;20092;-79
2021/06/06 05:46:31;;;;;;;10.50;6.60;;;;;;;21.48;50.36;99538.69;4993654;28;20042;-74
2021/06/06 05:48:57;;;;;;;13.27;5.65;;;;;;;21.74;49.33;99545.34;4995733;28;20038;-73
2021/06/06 05:51:23;;;;;;;9.80;4.60;;;;;;;21.67;49.06;99546.31;4999106;28;20030;-72
2021/06/06 05:53:53;;;;;;;9.38;5.20;;;;;;;21.58;49.10;99535.69;5009126;28;20033;-77
2021/06/06 05:56:20;;;;;;;15.00;5.70;;;;;;;21.72;49.08;99533.94;4992198;28;20133;-73
2021/06/06 05:58:46;;;;;;;6.75;4.75;;;;;;;23.03;46.55;99536.94;4991941;28;20144;-74
2021/06/06 06:01:13;;;;;;;10.25;5.43;;;;;;;24.73;42.92;99524.00;4998064;28;20026;-78
2021/06/06 06:03:39;;;;;;;7.93;4.35;;;;;;;25.39;40.80;99547.19;4996517;28;20042;-74
2021/06/06 06:06:06;;;;;;;6.82;3.97;;;;;;;25.07;40.77;99538.19;5001878;28;20076;-73
2021/06/06 06:08:41;;;;;;;7.22;4.63;;;;;;;24.78;41.43;99545.84;4997090;28;20041;-73
2021/06/06 06:11:11;;;;;;;7.20;4.00;;;;;;;25.23;40.68;99540.38;5002682;28;20034;-74
2021/06/06 06:13:37;;;;;;;7.03;4.28;;;;;;;25.72;40.19;99531.72;4998441;28;20054;-73
2021/06/06 06:16:05;;;;;;;7.53;4.40;;;;;;;25.68;40.02;99547.59;5006960;28;20061;-73
2021/06/06 06:18:33;;;;;;;7.03;5.00;;;;;;;25.82;40.03;99538.31;5001218;28;20045;-71
2021/06/06 06:21:00;;;;;;;7.90;4.95;;;;;;;26.25;39.38;99535.84;4994587;28;20471;-77
2021/06/06 06:23:26;;;;;;;8.23;4.75;;;;;;;26.57;37.97;99538.41;5002054;28;20034;-71
2021/06/06 06:25:52;;;;;;;8.13;4.90;;;;;;;26.37;38.55;99534.03;5001781;28;20046;-76
2021/06/06 06:28:18;;;;;;;5.38;3.88;;;;;;;26.08;39.15;99541.00;4995709;28;20046;-77
2021/06/06 06:30:58;;;;;;;11.02;3.63;;;;;;;26.02;38.88;99542.72;5001416;28;20037;-74
2021/06/06 06:33:35;;;;;;;11.68;3.70;;;;;;;25.97;38.93;99542.53;5007947;28;20148;-76
2021/06/06 06:36:01;;;;;;;9.00;4.00;;;;;;;25.73;39.92;99533.38;5001096;28;20138;-76
2021/06/06 06:38:27;;;;;;;7.28;3.80;;;;;;;25.90;39.58;99522.81;5001513;28;20486;-75
2021/06/06 06:41:12;;;;;;;6.15;3.72;;;;;;;25.70;39.87;99523.00;5003668;28;20065;-74
2021/06/06 06:43:38;;;;;;;5.85;4.10;;;;;;;26.09;39.64;99526.41;5002101;28;20462;-73
2021/06/06 06:46:04;;;;;;;5.65;3.42;;;;;;;26.36;38.68;99526.13;5002069;28;20401;-75
2021/06/06 06:48:30;;;;;;;5.93;3.55;;;;;;;25.86;39.13;99527.00;5001451;28;20100;-76
2021/06/06 06:50:58;;;;;;;8.25;3.75;;;;;;;25.68;39.64;99528.63;4999199;28;20562;-75
2021/06/06 06:53:25;;;;;;;6.72;3.83;;;;;;;25.97;39.22;99529.84;5001952;28;20026;-75
2021/06/06 06:55:51;;;;;;;4.80;3.20;;;;;;;25.82;39.10;99535.59;4958454;28;20026;-75
2021/06/06 06:58:18;;;;;;;8.45;3.60;;;;;;;25.63;39.81;99544.72;5000690;28;20104;-77
2021/06/06 07:00:47;;;;;;;5.90;3.55;;;;;;;25.65;39.86;99543.44;4995087;28;20030;-73
2021/06/06 07:03:16;;;;;;;6.72;3.50;;;;;;;25.80;39.43;99528.75;5000954;28;20049;-76
2021/06/06 07:05:42;;;;;;;8.52;3.70;;;;;;;25.95;39.53;99531.91;5001522;28;20500;-74
2021/06/06 07:08:11;;;;;;;7.93;3.23;;;;;;;26.15;38.72;99533.66;5014819;28;20050;-79
2021/06/06 07:10:39;;;;;;;5.57;3.30;;;;;;;25.97;38.98;99520.84;5000051;28;20649;-79
2021/06/06 07:13:06;;;;;;;8.02;3.67;;;;;;;26.42;38.61;99515.19;5000836;28;20034;-75
2021/06/06 07:15:32;;;;;;;4.32;3.38;;;;;;;27.04;37.33;99516.09;4999144;28;20030;-75
2021/06/06 07:17:58;;;;;;;4.70;3.30;;;;;;;26.94;37.04;99520.22;4998549;28;20363;-75
2021/06/06 07:20:27;;;;;;;5.75;3.20;;;;;;;27.50;36.41;99519.22;5002864;28;20044;-71
2021/06/06 07:22:54;;;;;;;4.38;3.00;;;;;;;28.14;35.38;99513.09;5001901;28;20034;-73
2021/06/06 07:25:22;;;;;;;3.75;2.90;;;;;;;28.37;34.03;99512.25;5001696;28;20034;-75
2021/06/06 07:27:49;;;;;;;7.95;2.97;;;;;;;28.49;34.38;99510.31;4998885;28;20042;-74
2021/06/06 07:30:18;;;;;;;3.55;2.70;;;;;;;28.67;33.77;99516.66;5003124;28;20034;-75
2021/06/06 07:32:45;;;;;;;5.55;2.67;;;;;;;28.66;33.71;99504.09;5012043;28;20034;-74
2021/06/06 07:35:12;;;;;;;6.47;2.67;;;;;;;28.24;34.27;99507.91;5007207;28;20084;-74
2021/06/06 07:37:40;;;;;;;3.80;3.10;;;;;;;28.20;34.94;99513.00;5002964;28;20053;-74
2021/06/06 07:40:06;;;;;;;3.05;2.75;;;;;;;28.40;33.95;99511.78;5001839;28;20038;-76
2021/06/06 07:42:34;;;;;;;5.15;3.65;;;;;;;27.77;35.12;99504.09;4992953;28;20048;-75
2021/06/06 07:45:04;;;;;;;4.35;3.13;;;;;;;30.29;31.67;99503.56;4992590;28;20400;-76
2021/06/06 07:47:30;;;;;;;4.57;3.13;;;;;;;31.36;29.64;99505.84;4993502;28;20038;-76
2021/06/06 07:49:56;;;;;;;2.97;2.55;;;;;;;30.74;30.20;99505.22;4992923;28;20085;-76
2021/06/06 07:52:22;;;;;;;4.03;3.08;;;;;;;29.94;31.06;99496.56;4993026;28;20089;-74
2021/06/06 07:54:48;;;;;;;4.20;2.90;;;;;;;30.08;30.85;99503.28;4992688;28;20031;-79
2021/06/06 07:57:13;;;;;;;4.47;3.00;;;;;;;29.98;31.33;99490.34;4991818;28;20506;-74
2021/06/06 07:59:39;;;;;;;8.23;3.63;;;;;;;30.30;30.67;99494.31;4993928;28;20038;-74
2021/06/06 08:02:05;;;;;;;4.65;3.40;;;;;;;30.82;30.12;99491.09;4998796;28;20036;-74
2021/06/06 08:04:31;;;;;;;7.15;3.30;;;;;;;32.05;28.41;99485.03;5032433;28;20065;-75
2021/06/06 08:06:57;;;;;;;4.10;3.70;;;;;;;32.85;26.78;99474.94;5032282;28;20068;-81
2021/06/06 08:09:23;;;;;;;5.67;3.70;;;;;;;33.06;27.25;99479.34;5032254;28;20029;-75
2021/06/06 08:11:49;;;;;;;4.00;2.63;;;;;;;33.29;26.36;99490.09;5032003;28;20120;-75
2021/06/06 08:14:15;;;;;;;3.80;3.07;;;;;;;32.31;27.45;99487.88;5032712;28;20137;-73
2021/06/06 08:16:42;;;;;;;4.67;3.10;;;;;;;33.64;26.26;99486.50;5032832;28;20072;-76
2021/06/06 08:19:08;;;;;;;;;;;;;;;34.59;24.90;99489.50;5032936;28;20283;-74
2021/06/06 08:21:38;;;;;;;6.88;3.15;;;;;;;34.92;24.78;99489.06;5030532;28;19912;-73
2021/06/06 08:24:06;;;;;;;6.63;2.83;;;;;;;34.41;24.65;99487.41;5031802;28;20045;-74
2021/06/06 08:26:32;;;;;;;3.85;2.20;;;;;;;31.86;27.34;99486.53;5032393;28;20041;-77
2021/06/06 08:28:58;;;;;;;4.53;2.40;;;;;;;30.62;28.89;99485.44;5032325;28;20049;-76
2021/06/06 08:31:28;;;;;;;17.08;7.85;;;;;;;28.92;31.48;99488.31;5005410;28;20034;-76
2021/06/06 08:33:54;;;;;;;7.30;5.75;;;;;;;29.89;30.29;99480.09;4993125;28;20062;-76
2021/06/06 08:36:44;;;;;;;3.13;2.83;;;;;;;29.94;30.12;99480.19;4994233;28;20489;-77
2021/06/06 08:39:16;;;;;;;3.63;2.22;;;;;;;28.66;31.74;99477.72;5007818;28;20095;-78
2021/06/06 08:41:59;;;;;;;5.38;3.15;;;;;;;28.38;32.10;99479.34;5011651;28;20034;-75
2021/06/06 08:44:29;;;;;;;5.70;3.38;;;;;;;30.54;29.32;99474.97;5011914;28;20041;-76
2021/06/06 08:47:26;;;;;;;5.50;3.10;;;;;;;30.86;29.12;99466.03;4993630;28;20084;-74
2021/06/06 08:49:56;;;;;;;6.35;2.78;;;;;;;30.95;29.31;99468.00;5010916;28;20049;-76
2021/06/06 08:52:52;;;;;;;3.65;2.60;;;;;;;29.05;31.53;99468.94;5010120;28;20038;-75
2021/06/06 08:55:17;;;;;;;;;;;;;;;30.95;28.70;99470.75;5010917;28;20037;-74
2021/06/06 08:57:48;;;;;;;6.17;3.50;;;;;;;31.83;27.87;99465.19;5011182;28;20278;-75
2021/06/06 09:00:21;;;;;;;4.13;2.97;;;;;;;31.97;27.41;99469.09;4994009;28;20447;-73
2021/06/06 09:02:51;;;;;;;5.03;2.70;;;;;;;31.20;27.69;99461.16;5014222;28;20033;-75
2021/06/06 09:05:37;;;;;;;5.50;2.85;;;;;;;29.09;30.93;99470.09;5030133;28;20041;-75
2021/06/06 09:08:06;;;;;;;7.75;2.63;;;;;;;28.51;31.77;99461.09;5030247;28;20045;-75
2021/06/06 09:10:36;;;;;;;4.78;2.25;;;;;;;27.74;33.15;99463.00;5030186;28;20041;-73
2021/06/06 09:13:06;;;;;;;6.00;2.88;;;;;;;26.66;34.68;99466.50;5029356;28;20045;-77
2021/06/06 09:15:32;;;;;;;9.90;3.20;;;;;;;27.38;34.06;99456.69;5012753;28;20029;-77
2021/06/06 09:18:01;;;;;;;10.27;3.63;;;;;;;29.04;31.79;99450.94;5043267;28;20034;-74
2021/06/06 09:20:34;;;;;;;12.52;3.45;;;;;;;29.48;31.20;99451.13;5010963;28;20042;-76
2021/06/06 09:23:31;;;;;;;7.22;2.78;;;;;;;30.07;30.63;99424.44;5009730;28;20042;-75
2021/06/06 09:26:13;;;;;;;6.10;3.30;;;;;;;29.78;30.83;99430.84;5008250;28;20033;-77
2021/06/06 09:28:42;;;;;;;3.58;2.80;;;;;;;31.09;29.10;99426.66;4996710;28;20141;-76
2021/06/06 09:31:16;;;;;;;4.45;2.20;;;;;;;29.28;30.67;99434.44;5005724;28;20517;-77
2021/06/06 09:33:45;;;;;;;5.80;2.88;;;;;;;28.32;32.03;99435.97;5001954;28;20030;-76
2021/06/06 09:36:35;;;;;;;3.75;2.67;;;;;;;27.29;34.19;99429.88;4994965;28;20049;-74
2021/06/06 09:39:02;;;;;;;4.40;2.88;;;;;;;27.14;34.22;99434.91;5013332;28;20022;-77
2021/06/06 09:41:38;;;;;;;30.83;22.25;;;;;;;27.12;35.35;99420.75;5013025;28;20028;-74
2021/06/06 09:44:10;;;;;;;4.22;3.00;;;;;;;26.45;36.19;99422.53;5020384;28;20042;-77
2021/06/06 09:46:42;;;;;;;4.82;2.97;;;;;;;27.82;34.00;99419.13;4997998;28;20092;-74
2021/06/06 09:49:15;;;;;;;4.10;2.63;;;;;;;28.88;31.96;99409.81;5013008;28;20057;-75
2021/06/06 09:51:41;;;;;;;5.28;2.97;;;;;;;29.51;30.86;99407.03;5014865;28;20065;-76
2021/06/06 09:54:13;;;;;;;4.65;2.65;;;;;;;30.45;29.52;99398.16;4996750;28;20383;-75
2021/06/06 09:56:40;;;;;;;5.20;3.55;;;;;;;29.57;30.43;99412.56;4995381;28;20065;-77
2021/06/06 09:59:28;;;;;;;6.97;3.58;;;;;;;27.89;33.18;99403.53;4993904;28;20034;-75
2021/06/06 10:02:02;;;;;;;5.90;3.25;;;;;;;27.81;33.74;99395.75;4978189;28;20510;-76
2021/06/06 10:04:32;;;;;;;4.88;3.20;;;;;;;27.34;34.34;99395.75;4998477;28;20041;-78
2021/06/06 10:07:28;;;;;;;6.60;3.65;;;;;;;27.49;33.93;99393.44;5014203;28;20474;-77
2021/06/06 10:09:56;;;;;;;5.43;3.30;;;;;;;28.41;32.70;99385.53;5008656;28;20073;-78
2021/06/06 10:12:31;;;;;;;6.88;3.38;;;;;;;29.75;31.09;99374.13;4992714;28;20042;-77
2021/06/06 10:15:00;;;;;;;5.65;3.30;;;;;;;30.59;30.03;99371.28;5001669;28;20068;-76
2021/06/06 10:17:32;;;;;;;5.40;2.78;;;;;;;29.94;30.11;99365.66;4999221;28;20583;-76
2021/06/06 10:20:23;;;;;;;7.13;3.90;;;;;;;28.83;31.78;99370.81;5002104;28;20042;-75
2021/06/06 10:22:53;;;;;;;4.82;3.15;;;;;;;28.07;32.72;99377.28;4995011;28;20484;-76
2021/06/06 10:25:33;;;;;;;4.93;2.63;;;;;;;27.01;33.96;99384.38;4999179;28;20042;-76
2021/06/06 10:28:00;;;;;;;9.10;3.33;;;;;;;26.29;35.39;99369.78;5000907;28;20053;-80
2021/06/06 10:30:33;;;;;;;;;;;;;;;25.94;37.10;99373.09;4988425;28;20038;-78
2021/06/06 10:33:16;;;;;;;6.75;3.03;;;;;;;25.99;37.46;99380.53;4998813;28;20020;-76
2021/06/06 10:35:41;;;;;;;7.15;3.05;;;;;;;25.86;37.66;99381.53;5004022;28;20034;-77
2021/06/06 10:38:08;;;;;;;8.10;3.17;;;;;;;25.47;38.75;99378.19;5002323;28;20038;-77
2021/06/06 10:40:38;;;;;;;12.77;3.47;;;;;;;25.16;39.16;99374.47;5004245;28;20036;-80
2021/06/06 10:43:23;;;;;;;8.75;3.22;;;;;;;25.17;39.80;99359.91;5003183;28;20038;-77
2021/06/06 10:45:59;;;;;;;4.22;3.33;;;;;;;25.19;39.43;99361.34;5002951;28;20503;-75
2021/06/06 10:48:29;;;;;;;5.43;3.47;;;;;;;24.71;40.33;99362.78;5004857;28;20610;-76
2021/06/06 10:51:29;;;;;;;5.38;2.70;;;;;;;24.36;41.29;99363.16;4987960;28;20041;-78
2021/06/06 10:54:02;;;;;;;5.72;3.53;;;;;;;24.32;41.11;99359.22;5015885;28;20053;-77
2021/06/06 10:56:56;;;;;;;7.15;3.17;;;;;;;24.34;40.81;99354.44;4996744;28;20798;-78
2021/06/06 10:59:33;;;;;;;5.60;3.10;;;;;;;24.24;41.15;99359.50;5007507;28;20034;-76
2021/06/06 11:02:00;;;;;;;6.57;2.92;;;;;;;23.97;41.30;99359.59;5013613;28;20026;-78
2021/06/06 11:04:32;;;;;;;5.57;2.83;;;;;;;23.46;42.14;99363.88;5002739;28;20067;-81
2021/06/06 11:07:09;;;;;;;5.05;2.70;;;;;;;23.07;43.81;99366.38;4983518;28;20435;-77
2021/06/06 11:09:37;;;;;;;;;;;;;;;22.77;46.08;99350.59;4993038;28;20375;-81
2021/06/06 11:12:09;;;;;;;10.20;6.93;;;;;;;22.62;46.20;99353.47;5004499;28;20082;-81
2021/06/06 11:14:49;;;;;;;7.30;2.92;;;;;;;22.34;47.21;99361.69;5008176;28;20068;-76
2021/06/06 11:17:33;;;;;;;6.15;2.60;;;;;;;22.17;47.21;99360.38;4985898;28;20118;-77
2021/06/06 11:20:18;;;;;;;8.73;3.47;;;;;;;22.02;49.06;99368.63;4996433;28;20105;-79
2021/06/06 11:22:47;;;;;;;10.05;5.20;;;;;;;21.94;49.79;99359.69;4999868;28;20431;-76
2021/06/06 11:25:37;;;;;;;12.93;6.10;;;;;;;21.77;51.26;99364.59;4974377;28;20036;-76
2021/06/06 11:28:08;;;;;;;12.00;8.18;;;;;;;21.45;52.94;99369.53;5001255;28;20062;-76
2021/06/06 11:30:38;;;;;;;6.43;3.83;;;;;;;21.32;52.90;99374.81;4998223;28;20399;-75
2021/06/06 11:33:07;;;;;;;7.95;5.88;;;;;;;21.19;54.43;99390.88;5002878;28;20041;-77
2021/06/06 11:35:35;;;;;;;8.38;5.30;;;;;;;20.99;55.19;99396.91;5000897;28;20482;-78
2021/06/06 11:38:18;;;;;;;6.60;5.32;;;;;;;20.95;55.18;99384.88;5000510;28;20169;-77
2021/06/06 11:40:51;;;;;;;7.20;5.15;;;;;;;21.01;55.49;99384.13;5001818;28;20100;-78
2021/06/06 11:43:30;;;;;;;14.00;5.60;;;;;;;21.12;55.42;99380.91;4999946;28;20037;-78
2021/06/06 11:46:15;;;;;;;11.52;4.93;;;;;;;21.42;54.66;99380.69;5001004;28;20049;-76
2021/06/06 11:48:53;;;;;;;16.55;6.90;;;;;;;21.91;54.47;99378.13;5000671;28;20038;-74